Cincinnati, Ohio
Traffic Map
Current Weather Conditions
Cincinnati, Ohio
Clear
Clear

Feels Like: 7°
Wind Chill: Ceiling: Unl
Heat Index: Visibility: 10mi
Dew Point: Wind: 0mph
Humidity: 73% Direction: ° ()
Pressure: 30.08in Gusts: 0mph
Raw Report DataKLUK 302353Z 00000KT 10SM CLR 07/02 A3008 RMK AO2 SLP187 T00670022 10133 20061 50000
Traffic Incident Summary
Active as of:
Severity:
Category:
InformationThere was an issue retrieving the traffic information for this location. Please try a different location or try again shortly.
Advertisements
Track Severe Weather on mobile